Warning: Javascript must be enabled to use all the features on this page!


Page Loading - Please Wait...

* We've detected you're using a mobile device. Find our Next Generation Station Page here.
Click to hideNews Bulletins

Peak Streamflow for the Nation

USGS 09468500 SAN CARLOS RIVER NEAR PERIDOT, AZ.

Graham County, Arizona
Hydrologic Unit Code 15040007
Latitude  33°17'47", Longitude 110°27'03" NAD27
Drainage area 1,026  square miles
Gage datum 2,542.29 feet above NGVD29
Output formats
Table
Graph
Tab-separated file
peakfq (watstore) format
Reselect output format
Water
Year
Date Gage
Height
(feet)
Stream-
flow
(cfs)
1916 1916-01-18   25,0002,7
1930 1930-03-17 6.853 5,700
1931 1931-08-07 7.023 7,000
1932 1932-02-10 8.303 12,000
1933 1933-09-08 8.043 11,000
1934 1934-08-18 7.353 8,200
1935 1935-02-07 8.453 13,800
1936 1936-02-17 8.803 14,400
1937 1937-02-07 10.703 29,400
1938 1938-03-04 7.353 8,640
1939 1939-08-03 7.963 10,200
1940 1940-08-03 6.703 6,000
1941 1941-03-14 11.403 40,600
1942 1941-12-12 5.353 2,520
1943 1943-09-26 5.163,6 5,060
1944 1944-09-27 3.883 795
1945 1945-08-09 5.503 3,200
1946 1946-07-27 7.003 4,530
1947 1947-08-08 11.103 15,000
1948 1948-08-02 6.653 2,850
1949 1949-01-09 6.883 3,260
1950 1950-07-21 6.683 2,150
1951 1951-08-29 7.133 2,940
1952 1952-01-13 12.543 39,200
1953 1953-08-27 5.483 860
1954 1954-03-23 11.003 23,500
1955 1955-08-06 9.823 14,600
1956 1956-01-29 8.883 9,300
1957 1957-07-26 9.203 7,310
1958 1958-03-22 8.603 7,670
1959 1959-08-18 5.803 2,280
1960 1959-12-26 10.503 14,300
1961 1961-07-22 7.053 5,510
1962 1962-09-26 5.363 4,400
1963 1963-02-11 8.883 9,740
1964 1964-07-25 8.563 6,610
1965 1965-01-08 5.203 1,710
1966 1965-12-22 14.803 36,300
1967 1967-07-29 10.903 16,100
1968 1967-12-20 18.503 32,000
1969 1969-01-22 7.043 4,580
1970 1970-09-06 8.656 5,080
1971 1971-08-14 9.90 7,930
1972 1971-10-17 8.60 4,970
1973 1972-10-19 12.50 25,000
1974 1974-07-20 7.35 7,800
1975 1975-04-11 4.10 1,960
1976 1976-09-25 9.00 12,000
1977 1977-09-11 8.15 5,400
1978 1978-03-02 11.78 18,600
1979 1978-12-18 10.00 22,500
1980 1980-02-15 9.80 12,300
1981 1981-09-22 6.50 565
1982 1982-02-11 7.90 6,260
1983 1983-03-25 7.90 6,260
1984 1983-10-01 9.24 10,300
1985 1984-12-27 7.15 4,470
1986 1986-07-16 6.57 3,240
1987 1986-12-07 7.00 4,130
1988 1988-08-27 6.65 3,400
1989 1989-08-03 6.53 3,160
1990 1990-08-14 9.96 12,900
1991 1991-03-01 10.23 13,900
1992 1992-02-13 9.74 13,200
1993 1993-01-08 12.12 54,800
1994 1994-03-20 6.09 2,940
1995 1995-01-05 9.30 27,900
1996 1996-09-11 6.60 1,990
1997 1997-02-28 7.06 2,350
1998 1998-02-10 7.11 2,530
1999 1999-07-28 8.57 12,300
2000 2000-08-22 8.21 8,930
2001 2000-11-07 7.05 2,320
2002 2002-08-07 5.97 200
2003 2003-09-10 8.47 7,970
2004 2004-03-06 6.64 1,280
2005 2005-02-12 11.46 20,000
2006 2006-07-31 12.24 26,400
2007 2007-08-05 7.58 1,220
2008 2008-01-28 13.28 36,500
2009 2008-12-26 7.14 1,480
2010 2010-01-22 14.04 45,900
2011 2011-08-18 7.25 483
2012 2012-09-04 9.67 1,7002
2013 2013-07-26 9.77 9,7702
2014 2014-08-19 6.92 3,540
2015 2015-01-31 8.07 3,430
2018 2018-08-08 6.07 1,040
2019 2019-03-13 9.57 6,540
2020 2020-03-13 8.29 3,800
2021 2021-08-19 8.60 4,380
2022 2022-01-01 8.92 5,030
?
  Peak Gage-Height Qualification Codes.
?
  Peak Streamflow Qualification Codes.